sensor_id;sensor_type;location;lat;lon;timestamp;pressure;altitude;pressure_sealevel;temperature;humidity
77360;BME280;66426;51.454;7.266;2023-05-10T00:00:03;99331.22;;;12.89;98.31
77360;BME280;66426;51.454;7.266;2023-05-10T00:01:05;99330.28;;;12.78;98.53
77360;BME280;66426;51.454;7.266;2023-05-10T00:02:06;99333.72;;;12.80;98.06
77360;BME280;66426;51.454;7.266;2023-05-10T00:03:07;99337.75;;;12.74;98.36
77360;BME280;66426;51.454;7.266;2023-05-10T00:04:09;99331.59;;;12.72;98.81
77360;BME280;66426;51.454;7.266;2023-05-10T00:05:09;99334.03;;;12.88;98.89
77360;BME280;66426;51.454;7.266;2023-05-10T00:06:10;99327.00;;;12.98;98.78
77360;BME280;66426;51.454;7.266;2023-05-10T00:07:11;99334.44;;;12.94;97.49
77360;BME280;66426;51.454;7.266;2023-05-10T00:08:12;99327.13;;;12.84;97.58
77360;BME280;66426;51.454;7.266;2023-05-10T00:09:13;99341.41;;;12.86;97.98
77360;BME280;66426;51.454;7.266;2023-05-10T00:10:14;99329.94;;;12.82;97.99
77360;BME280;66426;51.454;7.266;2023-05-10T00:11:15;99332.78;;;12.81;97.54
77360;BME280;66426;51.454;7.266;2023-05-10T00:12:16;99330.94;;;12.81;97.67
77360;BME280;66426;51.454;7.266;2023-05-10T00:13:17;99330.97;;;12.92;97.56
77360;BME280;66426;51.454;7.266;2023-05-10T00:14:18;99327.66;;;12.89;97.42
77360;BME280;66426;51.454;7.266;2023-05-10T00:15:19;99324.66;;;12.81;97.10
77360;BME280;66426;51.454;7.266;2023-05-10T00:16:20;99331.88;;;12.80;97.43
77360;BME280;66426;51.454;7.266;2023-05-10T00:17:21;99334.53;;;12.69;97.58
77360;BME280;66426;51.454;7.266;2023-05-10T00:18:22;99335.72;;;12.65;97.64
77360;BME280;66426;51.454;7.266;2023-05-10T00:19:24;99327.81;;;12.62;98.61
77360;BME280;66426;51.454;7.266;2023-05-10T00:20:25;99331.69;;;12.83;98.78
77360;BME280;66426;51.454;7.266;2023-05-10T00:21:26;99333.41;;;12.84;97.93
77360;BME280;66426;51.454;7.266;2023-05-10T00:22:28;99328.22;;;12.81;98.08
77360;BME280;66426;51.454;7.266;2023-05-10T00:23:29;99328.78;;;12.73;98.02
77360;BME280;66426;51.454;7.266;2023-05-10T00:24:34;99324.84;;;12.90;98.37
77360;BME280;66426;51.454;7.266;2023-05-10T00:25:40;99322.97;;;13.04;98.25
77360;BME280;66426;51.454;7.266;2023-05-10T00:26:41;99334.03;;;12.88;98.00
77360;BME280;66426;51.454;7.266;2023-05-10T00:27:42;99324.94;;;12.89;98.06
77360;BME280;66426;51.454;7.266;2023-05-10T00:28:43;99336.53;;;12.91;98.17
77360;BME280;66426;51.454;7.266;2023-05-10T00:29:43;99331.13;;;12.91;97.67
77360;BME280;66426;51.454;7.266;2023-05-10T00:30:44;99323.06;;;12.78;98.13
77360;BME280;66426;51.454;7.266;2023-05-10T00:31:45;99325.84;;;12.77;98.25
77360;BME280;66426;51.454;7.266;2023-05-10T00:32:46;99328.66;;;12.75;98.45
77360;BME280;66426;51.454;7.266;2023-05-10T00:33:48;99330.81;;;12.70;98.28
77360;BME280;66426;51.454;7.266;2023-05-10T00:34:51;99327.16;;;12.71;98.90
77360;BME280;66426;51.454;7.266;2023-05-10T00:35:52;99326.72;;;12.77;98.58
77360;BME280;66426;51.454;7.266;2023-05-10T00:36:53;99327.47;;;12.79;98.18
77360;BME280;66426;51.454;7.266;2023-05-10T00:37:54;99330.06;;;12.81;98.49
77360;BME280;66426;51.454;7.266;2023-05-10T00:38:55;99328.31;;;12.80;98.28
77360;BME280;66426;51.454;7.266;2023-05-10T00:39:55;99325.22;;;12.73;98.74
77360;BME280;66426;51.454;7.266;2023-05-10T00:40:56;99328.13;;;12.70;98.86
77360;BME280;66426;51.454;7.266;2023-05-10T00:41:57;99331.56;;;12.85;98.74
77360;BME280;66426;51.454;7.266;2023-05-10T00:42:58;99335.00;;;12.87;98.60
77360;BME280;66426;51.454;7.266;2023-05-10T00:44:01;99325.09;;;12.74;98.27
77360;BME280;66426;51.454;7.266;2023-05-10T00:45:03;99328.25;;;12.68;98.55
77360;BME280;66426;51.454;7.266;2023-05-10T00:46:04;99326.59;;;12.79;99.19
77360;BME280;66426;51.454;7.266;2023-05-10T00:47:05;99327.56;;;12.78;98.98
77360;BME280;66426;51.454;7.266;2023-05-10T00:48:06;99329.69;;;12.85;99.23
77360;BME280;66426;51.454;7.266;2023-05-10T00:49:07;99324.84;;;12.90;98.58
77360;BME280;66426;51.454;7.266;2023-05-10T00:50:10;99328.97;;;12.83;98.01
77360;BME280;66426;51.454;7.266;2023-05-10T00:51:11;99325.94;;;12.75;98.52
77360;BME280;66426;51.454;7.266;2023-05-10T00:52:12;99323.88;;;12.91;98.15
77360;BME280;66426;51.454;7.266;2023-05-10T00:53:14;99329.03;;;12.70;98.92
77360;BME280;66426;51.454;7.266;2023-05-10T00:54:15;99321.88;;;12.69;99.01
77360;BME280;66426;51.454;7.266;2023-05-10T00:55:17;99321.06;;;12.80;99.08
77360;BME280;66426;51.454;7.266;2023-05-10T00:56:19;99335.44;;;12.93;98.67
77360;BME280;66426;51.454;7.266;2023-05-10T00:57:24;99321.06;;;12.93;98.30
77360;BME280;66426;51.454;7.266;2023-05-10T00:58:25;99328.22;;;12.81;98.33
77360;BME280;66426;51.454;7.266;2023-05-10T00:59:29;99324.53;;;12.82;98.30
77360;BME280;66426;51.454;7.266;2023-05-10T01:00:30;99324.13;;;12.76;98.36
77360;BME280;66426;51.454;7.266;2023-05-10T01:01:32;99325.31;;;12.71;98.36
77360;BME280;66426;51.454;7.266;2023-05-10T01:02:34;99332.69;;;12.69;98.54
77360;BME280;66426;51.454;7.266;2023-05-10T01:03:35;99326.31;;;12.70;98.39
77360;BME280;66426;51.454;7.266;2023-05-10T01:04:37;99322.53;;;12.73;98.53
77360;BME280;66426;51.454;7.266;2023-05-10T01:05:39;99326.94;;;12.74;98.41
77360;BME280;66426;51.454;7.266;2023-05-10T01:06:41;99329.84;;;12.84;98.66
77360;BME280;66426;51.454;7.266;2023-05-10T01:07:42;99321.72;;;12.84;98.45
77360;BME280;66426;51.454;7.266;2023-05-10T01:08:42;99327.56;;;12.78;99.01
77360;BME280;66426;51.454;7.266;2023-05-10T01:09:43;99325.63;;;12.80;98.97
77360;BME280;66426;51.454;7.266;2023-05-10T01:10:44;99322.59;;;12.84;99.05
77360;BME280;66426;51.454;7.266;2023-05-10T01:11:46;99326.81;;;12.88;98.56
77360;BME280;66426;51.454;7.266;2023-05-10T01:12:48;99328.97;;;12.83;98.60
77360;BME280;66426;51.454;7.266;2023-05-10T01:13:57;99326.81;;;12.88;98.68
77360;BME280;66426;51.454;7.266;2023-05-10T01:14:58;99331.88;;;12.80;98.34
77360;BME280;66426;51.454;7.266;2023-05-10T01:16:00;99322.28;;;12.76;98.22
77360;BME280;66426;51.454;7.266;2023-05-10T01:17:04;99324.28;;;12.85;98.40
77360;BME280;66426;51.454;7.266;2023-05-10T01:18:08;99332.25;;;12.76;98.22
77360;BME280;66426;51.454;7.266;2023-05-10T01:19:12;99329.31;;;12.79;98.62
77360;BME280;66426;51.454;7.266;2023-05-10T01:20:17;99324.47;;;12.71;98.66
77360;BME280;66426;51.454;7.266;2023-05-10T01:21:23;99334.22;;;12.61;99.06
77360;BME280;66426;51.454;7.266;2023-05-10T01:22:41;99336.03;;;12.73;99.66
77360;BME280;66426;51.454;7.266;2023-05-10T01:24:18;99335.47;;;12.81;98.76
77360;BME280;66426;51.454;7.266;2023-05-10T01:25:55;99342.94;;;12.77;98.17
77360;BME280;66426;51.454;7.266;2023-05-10T01:27:25;99339.03;;;12.81;98.53
77360;BME280;66426;51.454;7.266;2023-05-10T01:31:37;99339.03;;;12.81;97.58
77360;BME280;66426;51.454;7.266;2023-05-10T01:32:45;99341.63;;;12.70;98.11
77360;BME280;66426;51.454;7.266;2023-05-10T01:33:52;99346.50;;;12.78;98.34
77360;BME280;66426;51.454;7.266;2023-05-10T01:35:00;99340.50;;;12.85;98.24
77360;BME280;66426;51.454;7.266;2023-05-10T01:36:06;99341.97;;;12.78;97.63
77360;BME280;66426;51.454;7.266;2023-05-10T01:37:15;99343.13;;;12.87;97.77
77360;BME280;66426;51.454;7.266;2023-05-10T01:38:22;99348.66;;;12.72;97.54
77360;BME280;66426;51.454;7.266;2023-05-10T01:39:33;99347.47;;;12.77;98.03
77360;BME280;66426;51.454;7.266;2023-05-10T01:40:41;99346.97;;;12.59;97.88
77360;BME280;66426;51.454;7.266;2023-05-10T01:41:49;99345.66;;;12.64;97.81
77360;BME280;66426;51.454;7.266;2023-05-10T01:42:55;99346.66;;;12.63;97.72
77360;BME280;66426;51.454;7.266;2023-05-10T01:44:02;99340.16;;;12.66;98.27
77360;BME280;66426;51.454;7.266;2023-05-10T01:45:13;99346.19;;;12.69;98.68
77360;BME280;66426;51.454;7.266;2023-05-10T01:46:17;99352.59;;;12.68;97.97
77360;BME280;66426;51.454;7.266;2023-05-10T01:47:28;99351.56;;;12.82;97.69
77360;BME280;66426;51.454;7.266;2023-05-10T01:48:33;99347.19;;;12.68;97.40
77360;BME280;66426;51.454;7.266;2023-05-10T01:49:37;99347.28;;;12.67;97.46
77360;BME280;66426;51.454;7.266;2023-05-10T01:50:43;99355.59;;;12.77;97.89
77360;BME280;66426;51.454;7.266;2023-05-10T01:51:47;99353.41;;;12.82;97.88
77360;BME280;66426;51.454;7.266;2023-05-10T01:52:51;99361.78;;;12.66;97.82
77360;BME280;66426;51.454;7.266;2023-05-10T01:54:00;99361.13;;;12.49;97.51
77360;BME280;66426;51.454;7.266;2023-05-10T01:55:05;99348.72;;;12.47;98.26
77360;BME280;66426;51.454;7.266;2023-05-10T01:56:07;99357.31;;;12.65;98.76
77360;BME280;66426;51.454;7.266;2023-05-10T01:57:10;99350.44;;;12.61;98.60
77360;BME280;66426;51.454;7.266;2023-05-10T01:58:15;99355.59;;;12.64;98.46
77360;BME280;66426;51.454;7.266;2023-05-10T01:59:19;99351.09;;;12.51;98.25
77360;BME280;66426;51.454;7.266;2023-05-10T02:00:20;99349.25;;;12.52;98.67
77360;BME280;66426;51.454;7.266;2023-05-10T02:01:22;99354.34;;;12.44;98.54
77360;BME280;66426;51.454;7.266;2023-05-10T02:02:25;99367.63;;;12.47;98.23
77360;BME280;66426;51.454;7.266;2023-05-10T02:03:28;99356.81;;;12.47;98.30
77360;BME280;66426;51.454;7.266;2023-05-10T02:04:32;99352.41;;;12.33;97.99
77360;BME280;66426;51.454;7.266;2023-05-10T02:05:36;99357.13;;;12.42;98.86
77360;BME280;66426;51.454;7.266;2023-05-10T02:06:38;99358.00;;;12.43;98.91
77360;BME280;66426;51.454;7.266;2023-05-10T02:07:40;99356.91;;;12.33;98.71
77360;BME280;66426;51.454;7.266;2023-05-10T02:08:43;99358.00;;;12.43;98.88
77360;BME280;66426;51.454;7.266;2023-05-10T02:09:47;99359.44;;;12.36;98.99
77360;BME280;66426;51.454;7.266;2023-05-10T02:10:50;99356.59;;;12.50;99.59
77360;BME280;66426;51.454;7.266;2023-05-10T02:11:52;99358.75;;;12.45;98.73
77360;BME280;66426;51.454;7.266;2023-05-10T02:12:54;99364.28;;;12.30;98.54
77360;BME280;66426;51.454;7.266;2023-05-10T02:13:57;99357.59;;;12.36;99.21
77360;BME280;66426;51.454;7.266;2023-05-10T02:15:00;99366.09;;;12.43;98.47
77360;BME280;66426;51.454;7.266;2023-05-10T02:16:03;99363.22;;;12.33;98.64
77360;BME280;66426;51.454;7.266;2023-05-10T02:17:06;99365.78;;;12.47;98.54
77360;BME280;66426;51.454;7.266;2023-05-10T02:18:09;99367.72;;;12.45;98.23
77360;BME280;66426;51.454;7.266;2023-05-10T02:19:12;99368.50;;;12.35;98.16
77360;BME280;66426;51.454;7.266;2023-05-10T02:20:16;99366.22;;;12.28;99.03
77360;BME280;66426;51.454;7.266;2023-05-10T02:21:20;99370.22;;;12.23;98.60
77360;BME280;66426;51.454;7.266;2023-05-10T02:22:22;99370.75;;;12.28;99.08
77360;BME280;66426;51.454;7.266;2023-05-10T02:23:24;99373.78;;;12.11;98.33
77360;BME280;66426;51.454;7.266;2023-05-10T02:24:27;99367.94;;;12.04;98.69
77360;BME280;66426;51.454;7.266;2023-05-10T02:25:29;99369.34;;;12.09;99.75
77360;BME280;66426;51.454;7.266;2023-05-10T02:26:33;99370.19;;;12.10;99.71
77360;BME280;66426;51.454;7.266;2023-05-10T02:27:36;99363.53;;;12.16;99.53
77360;BME280;66426;51.454;7.266;2023-05-10T02:28:38;99365.25;;;12.17;99.09
77360;BME280;66426;51.454;7.266;2023-05-10T02:29:41;99367.63;;;12.21;99.04
77360;BME280;66426;51.454;7.266;2023-05-10T02:30:42;99361.25;;;12.22;99.00
77360;BME280;66426;51.454;7.266;2023-05-10T02:31:44;99363.72;;;12.25;98.95
77360;BME280;66426;51.454;7.266;2023-05-10T02:32:46;99372.41;;;12.30;98.98
77360;BME280;66426;51.454;7.266;2023-05-10T02:33:49;99367.72;;;12.07;98.99
77360;BME280;66426;51.454;7.266;2023-05-10T02:34:52;99379.50;;;12.19;99.00
77360;BME280;66426;51.454;7.266;2023-05-10T02:35:55;99375.91;;;12.05;99.18
77360;BME280;66426;51.454;7.266;2023-05-10T02:36:58;99376.69;;;12.20;99.17
77360;BME280;66426;51.454;7.266;2023-05-10T02:38:01;99371.50;;;12.30;99.04
77360;BME280;66426;51.454;7.266;2023-05-10T02:39:02;99375.72;;;12.34;99.11
77360;BME280;66426;51.454;7.266;2023-05-10T02:40:05;99378.00;;;12.15;98.63
77360;BME280;66426;51.454;7.266;2023-05-10T02:41:08;99382.31;;;12.30;98.95
77360;BME280;66426;51.454;7.266;2023-05-10T02:42:15;99375.81;;;12.07;98.50
77360;BME280;66426;51.454;7.266;2023-05-10T02:43:18;99378.06;;;12.00;99.04
77360;BME280;66426;51.454;7.266;2023-05-10T02:44:19;99384.91;;;12.19;99.27
77360;BME280;66426;51.454;7.266;2023-05-10T02:45:24;99377.44;;;12.35;98.63
77360;BME280;66426;51.454;7.266;2023-05-10T02:46:26;99379.59;;;12.17;98.12
77360;BME280;66426;51.454;7.266;2023-05-10T02:47:28;99385.78;;;12.19;98.28
77360;BME280;66426;51.454;7.266;2023-05-10T02:48:29;99379.94;;;12.25;98.34
77360;BME280;66426;51.454;7.266;2023-05-10T02:49:30;99381.13;;;12.34;98.18
77360;BME280;66426;51.454;7.266;2023-05-10T02:50:33;99380.06;;;12.37;97.75
77360;BME280;66426;51.454;7.266;2023-05-10T02:51:37;99384.06;;;12.31;97.13
77360;BME280;66426;51.454;7.266;2023-05-10T02:52:44;99387.72;;;12.17;98.06
77360;BME280;66426;51.454;7.266;2023-05-10T02:53:49;99386.00;;;12.16;98.18
77360;BME280;66426;51.454;7.266;2023-05-10T02:54:52;99389.09;;;12.10;98.38
77360;BME280;66426;51.454;7.266;2023-05-10T02:55:59;99389.25;;;12.21;97.86
77360;BME280;66426;51.454;7.266;2023-05-10T02:57:04;99388.25;;;12.22;98.20
77360;BME280;66426;51.454;7.266;2023-05-10T02:58:06;99384.69;;;12.22;98.48
77360;BME280;66426;51.454;7.266;2023-05-10T02:59:07;99385.69;;;12.21;98.49
77360;BME280;66426;51.454;7.266;2023-05-10T03:00:08;99380.16;;;12.09;98.41
77360;BME280;66426;51.454;7.266;2023-05-10T03:01:09;99390.00;;;12.23;98.72
77360;BME280;66426;51.454;7.266;2023-05-10T03:02:11;99386.00;;;12.29;98.28
77360;BME280;66426;51.454;7.266;2023-05-10T03:03:12;99381.56;;;12.28;98.07
77360;BME280;66426;51.454;7.266;2023-05-10T03:04:13;99379.06;;;12.25;97.82
77360;BME280;66426;51.454;7.266;2023-05-10T03:05:14;99387.41;;;12.22;97.96
77360;BME280;66426;51.454;7.266;2023-05-10T03:06:15;99379.69;;;12.03;97.88
77360;BME280;66426;51.454;7.266;2023-05-10T03:07:18;99380.81;;;12.13;98.06
77360;BME280;66426;51.454;7.266;2023-05-10T03:08:22;99380.59;;;12.16;98.00
77360;BME280;66426;51.454;7.266;2023-05-10T03:09:23;99384.38;;;12.14;97.82
77360;BME280;66426;51.454;7.266;2023-05-10T03:10:27;99382.09;;;12.07;97.87
77360;BME280;66426;51.454;7.266;2023-05-10T03:11:50;99387.47;;;12.07;98.18
77360;BME280;66426;51.454;7.266;2023-05-10T03:13:05;99379.38;;;12.07;98.05
77360;BME280;66426;51.454;7.266;2023-05-10T03:14:16;99374.50;;;12.00;97.86
77360;BME280;66426;51.454;7.266;2023-05-10T03:15:22;99385.00;;;11.92;98.23
77360;BME280;66426;51.454;7.266;2023-05-10T03:16:30;99380.78;;;12.00;98.16
77360;BME280;66426;51.454;7.266;2023-05-10T03:17:39;99380.47;;;12.05;98.21
77360;BME280;66426;51.454;7.266;2023-05-10T03:18:44;99381.00;;;12.10;98.32
77360;BME280;66426;51.454;7.266;2023-05-10T03:19:48;99380.38;;;12.19;98.29
77360;BME280;66426;51.454;7.266;2023-05-10T03:20:59;99379.84;;;12.14;98.16
77360;BME280;66426;51.454;7.266;2023-05-10T03:22:04;99390.09;;;12.22;97.35
77360;BME280;66426;51.454;7.266;2023-05-10T03:23:21;99384.91;;;12.06;98.15
77360;BME280;66426;51.454;7.266;2023-05-10T03:24:23;99389.09;;;12.10;97.42
77360;BME280;66426;51.454;7.266;2023-05-10T03:25:29;99391.47;;;12.02;97.19
77360;BME280;66426;51.454;7.266;2023-05-10T03:26:31;99387.72;;;12.17;97.35
77360;BME280;66426;51.454;7.266;2023-05-10T03:27:33;99385.44;;;12.11;97.51
77360;BME280;66426;51.454;7.266;2023-05-10T03:28:36;99396.34;;;12.22;97.29
77360;BME280;66426;51.454;7.266;2023-05-10T03:29:39;99393.03;;;12.19;97.39
77360;BME280;66426;51.454;7.266;2023-05-10T03:30:41;99389.34;;;12.20;97.04
77360;BME280;66426;51.454;7.266;2023-05-10T03:31:43;99387.16;;;12.12;97.01
77360;BME280;66426;51.454;7.266;2023-05-10T03:32:44;99386.19;;;12.00;97.37
77360;BME280;66426;51.454;7.266;2023-05-10T03:33:46;99400.88;;;11.96;97.03
77360;BME280;66426;51.454;7.266;2023-05-10T03:34:47;99396.66;;;11.92;97.80
77360;BME280;66426;51.454;7.266;2023-05-10T03:35:48;99393.00;;;12.06;97.71
77360;BME280;66426;51.454;7.266;2023-05-10T03:36:49;99401.19;;;12.04;97.48
77360;BME280;66426;51.454;7.266;2023-05-10T03:37:50;99405.22;;;12.12;97.13
77360;BME280;66426;51.454;7.266;2023-05-10T03:38:52;99397.44;;;12.07;97.19
77360;BME280;66426;51.454;7.266;2023-05-10T03:39:53;99393.56;;;12.11;97.19
77360;BME280;66426;51.454;7.266;2023-05-10T03:40:54;99397.75;;;12.15;97.02
77360;BME280;66426;51.454;7.266;2023-05-10T03:41:56;99401.66;;;12.11;97.09
77360;BME280;66426;51.454;7.266;2023-05-10T03:42:57;99398.19;;;12.09;97.26
77360;BME280;66426;51.454;7.266;2023-05-10T03:43:58;99401.34;;;12.16;97.02
77360;BME280;66426;51.454;7.266;2023-05-10T03:44:59;99409.31;;;12.17;97.20
77360;BME280;66426;51.454;7.266;2023-05-10T03:46:01;99409.44;;;12.28;96.87
77360;BME280;66426;51.454;7.266;2023-05-10T03:47:02;99404.91;;;12.29;96.58
77360;BME280;66426;51.454;7.266;2023-05-10T03:48:03;99408.78;;;12.25;96.49
77360;BME280;66426;51.454;7.266;2023-05-10T03:49:04;99409.38;;;12.03;96.81
77360;BME280;66426;51.454;7.266;2023-05-10T03:50:06;99403.50;;;12.11;97.34
77360;BME280;66426;51.454;7.266;2023-05-10T03:51:07;99409.00;;;12.09;97.49
77360;BME280;66426;51.454;7.266;2023-05-10T03:52:08;99409.94;;;12.08;97.54
77360;BME280;66426;51.454;7.266;2023-05-10T03:53:09;99410.53;;;12.13;97.76
77360;BME280;66426;51.454;7.266;2023-05-10T03:54:11;99409.00;;;12.22;97.49
77360;BME280;66426;51.454;7.266;2023-05-10T03:55:12;99410.41;;;12.27;97.47
77360;BME280;66426;51.454;7.266;2023-05-10T03:56:13;99414.84;;;12.16;97.65
77360;BME280;66426;51.454;7.266;2023-05-10T03:57:14;99419.38;;;12.28;97.33
77360;BME280;66426;51.454;7.266;2023-05-10T03:58:15;99413.53;;;12.34;96.85
77360;BME280;66426;51.454;7.266;2023-05-10T03:59:16;99414.31;;;12.36;96.35
77360;BME280;66426;51.454;7.266;2023-05-10T04:00:17;99417.66;;;12.27;96.13
77360;BME280;66426;51.454;7.266;2023-05-10T04:01:17;99417.00;;;12.23;96.69
77360;BME280;66426;51.454;7.266;2023-05-10T04:02:18;99417.09;;;12.22;96.36
77360;BME280;66426;51.454;7.266;2023-05-10T04:03:19;99422.41;;;12.23;96.38
77360;BME280;66426;51.454;7.266;2023-05-10T04:04:20;99423.91;;;12.27;96.99
77360;BME280;66426;51.454;7.266;2023-05-10T04:05:22;99415.56;;;12.18;96.62
77360;BME280;66426;51.454;7.266;2023-05-10T04:06:23;99420.66;;;12.22;96.75
77360;BME280;66426;51.454;7.266;2023-05-10T04:07:24;99414.94;;;12.14;97.58
77360;BME280;66426;51.454;7.266;2023-05-10T04:08:25;99408.13;;;12.08;97.80
77360;BME280;66426;51.454;7.266;2023-05-10T04:09:27;99411.00;;;12.05;98.02
77360;BME280;66426;51.454;7.266;2023-05-10T04:10:28;99415.56;;;12.18;98.23
77360;BME280;66426;51.454;7.266;2023-05-10T04:11:29;99410.06;;;12.19;97.89
77360;BME280;66426;51.454;7.266;2023-05-10T04:12:30;99414.72;;;12.17;97.19
77360;BME280;66426;51.454;7.266;2023-05-10T04:13:31;99407.47;;;12.18;97.01
77360;BME280;66426;51.454;7.266;2023-05-10T04:14:32;99412.00;;;12.17;97.15
77360;BME280;66426;51.454;7.266;2023-05-10T04:15:34;99413.84;;;12.04;97.33
77360;BME280;66426;51.454;7.266;2023-05-10T04:16:36;99412.53;;;12.09;97.33
77360;BME280;66426;51.454;7.266;2023-05-10T04:17:37;99420.97;;;12.18;97.28
77360;BME280;66426;51.454;7.266;2023-05-10T04:18:38;99419.56;;;12.12;97.81
77360;BME280;66426;51.454;7.266;2023-05-10T04:19:40;99419.25;;;12.17;97.76
77360;BME280;66426;51.454;7.266;2023-05-10T04:20:41;99422.72;;;12.19;97.47
77360;BME280;66426;51.454;7.266;2023-05-10T04:21:42;99415.16;;;12.11;97.68
77360;BME280;66426;51.454;7.266;2023-05-10T04:22:42;99418.50;;;12.15;97.47
77360;BME280;66426;51.454;7.266;2023-05-10T04:23:43;99420.31;;;12.01;98.12
77360;BME280;66426;51.454;7.266;2023-05-10T04:24:46;99419.47;;;12.01;98.06
77360;BME280;66426;51.454;7.266;2023-05-10T04:25:47;99418.63;;;12.13;98.99
77360;BME280;66426;51.454;7.266;2023-05-10T04:26:48;99419.47;;;12.14;98.52
77360;BME280;66426;51.454;7.266;2023-05-10T04:27:49;99414.69;;;12.04;98.51
77360;BME280;66426;51.454;7.266;2023-05-10T04:28:49;99416.88;;;12.12;97.93
77360;BME280;66426;51.454;7.266;2023-05-10T04:29:50;99411.91;;;12.06;98.64
77360;BME280;66426;51.454;7.266;2023-05-10T04:30:51;99415.16;;;12.11;98.78
77360;BME280;66426;51.454;7.266;2023-05-10T04:31:52;99421.72;;;12.07;98.21
77360;BME280;66426;51.454;7.266;2023-05-10T04:32:54;99417.31;;;12.06;98.26
77360;BME280;66426;51.454;7.266;2023-05-10T04:33:54;99424.66;;;12.17;97.89
77360;BME280;66426;51.454;7.266;2023-05-10T04:34:55;99424.34;;;12.08;97.35
77360;BME280;66426;51.454;7.266;2023-05-10T04:35:56;99422.50;;;12.09;97.69
77360;BME280;66426;51.454;7.266;2023-05-10T04:36:57;99428.88;;;12.21;97.88
77360;BME280;66426;51.454;7.266;2023-05-10T04:37:58;99426.72;;;12.13;97.80
77360;BME280;66426;51.454;7.266;2023-05-10T04:38:59;99427.25;;;12.18;97.83
77360;BME280;66426;51.454;7.266;2023-05-10T04:40:01;99428.53;;;12.13;97.96
77360;BME280;66426;51.454;7.266;2023-05-10T04:41:04;99423.97;;;12.00;98.45
77360;BME280;66426;51.454;7.266;2023-05-10T04:42:05;99430.81;;;12.06;98.44
77360;BME280;66426;51.454;7.266;2023-05-10T04:43:06;99431.00;;;12.03;98.79
77360;BME280;66426;51.454;7.266;2023-05-10T04:44:07;99432.13;;;12.13;98.80
77360;BME280;66426;51.454;7.266;2023-05-10T04:45:09;99427.56;;;12.14;98.68
77360;BME280;66426;51.454;7.266;2023-05-10T04:46:10;99427.44;;;12.15;98.80
77360;BME280;66426;51.454;7.266;2023-05-10T04:47:11;99427.97;;;12.07;98.33
77360;BME280;66426;51.454;7.266;2023-05-10T04:48:13;99427.34;;;12.17;98.44
77360;BME280;66426;51.454;7.266;2023-05-10T04:49:14;99424.88;;;12.14;98.61
77360;BME280;66426;51.454;7.266;2023-05-10T04:50:15;99420.88;;;12.19;98.45
77360;BME280;66426;51.454;7.266;2023-05-10T04:51:16;99426.81;;;12.12;98.70
77360;BME280;66426;51.454;7.266;2023-05-10T04:52:17;99434.97;;;11.97;99.18
77360;BME280;66426;51.454;7.266;2023-05-10T04:53:18;99432.03;;;11.87;99.12
77360;BME280;66426;51.454;7.266;2023-05-10T04:54:19;99439.84;;;11.92;99.72
77360;BME280;66426;51.454;7.266;2023-05-10T04:55:21;99436.59;;;12.00;99.55
77360;BME280;66426;51.454;7.266;2023-05-10T04:56:22;99434.25;;;12.08;99.39
77360;BME280;66426;51.454;7.266;2023-05-10T04:57:23;99441.47;;;11.95;99.54
77360;BME280;66426;51.454;7.266;2023-05-10T04:58:24;99441.16;;;11.99;99.72
77360;BME280;66426;51.454;7.266;2023-05-10T04:59:25;99434.16;;;12.09;99.21
77360;BME280;66426;51.454;7.266;2023-05-10T05:00:26;99437.41;;;12.15;98.96
77360;BME280;66426;51.454;7.266;2023-05-10T05:01:27;99440.09;;;12.15;99.05
77360;BME280;66426;51.454;7.266;2023-05-10T05:02:28;99439.03;;;12.17;98.77
77360;BME280;66426;51.454;7.266;2023-05-10T05:03:29;99443.47;;;12.31;98.78
77360;BME280;66426;51.454;7.266;2023-05-10T05:04:30;99438.94;;;12.32;98.29
77360;BME280;66426;51.454;7.266;2023-05-10T05:05:31;99442.16;;;12.24;98.51
77360;BME280;66426;51.454;7.266;2023-05-10T05:06:32;99443.66;;;12.28;98.52
77360;BME280;66426;51.454;7.266;2023-05-10T05:07:33;99440.31;;;12.24;98.16
77360;BME280;66426;51.454;7.266;2023-05-10T05:08:34;99443.47;;;12.18;98.25
77360;BME280;66426;51.454;7.266;2023-05-10T05:09:35;99440.41;;;12.10;98.92
77360;BME280;66426;51.454;7.266;2023-05-10T05:10:37;99443.34;;;12.20;98.71
77360;BME280;66426;51.454;7.266;2023-05-10T05:11:38;99442.56;;;12.18;98.90
77360;BME280;66426;51.454;7.266;2023-05-10T05:12:40;99450.28;;;12.24;98.86
77360;BME280;66426;51.454;7.266;2023-05-10T05:13:41;99451.56;;;12.18;98.73
77360;BME280;66426;51.454;7.266;2023-05-10T05:14:42;99450.72;;;12.30;98.85
77360;BME280;66426;51.454;7.266;2023-05-10T05:15:43;99457.41;;;12.38;98.61
77360;BME280;66426;51.454;7.266;2023-05-10T05:16:44;99452.22;;;12.22;98.24
77360;BME280;66426;51.454;7.266;2023-05-10T05:17:45;99456.53;;;12.24;99.09
77360;BME280;66426;51.454;7.266;2023-05-10T05:18:46;99450.50;;;12.34;99.07
77360;BME280;66426;51.454;7.266;2023-05-10T05:19:47;99460.88;;;12.40;98.77
77360;BME280;66426;51.454;7.266;2023-05-10T05:20:48;99460.22;;;12.23;98.71
77360;BME280;66426;51.454;7.266;2023-05-10T05:21:49;99469.72;;;12.29;98.86
77360;BME280;66426;51.454;7.266;2023-05-10T05:22:50;99461.38;;;12.19;98.66
77360;BME280;66426;51.454;7.266;2023-05-10T05:23:51;99456.09;;;12.18;98.92
77360;BME280;66426;51.454;7.266;2023-05-10T05:24:52;99458.91;;;12.16;99.29
77360;BME280;66426;51.454;7.266;2023-05-10T05:25:54;99452.13;;;12.23;99.08
77360;BME280;66426;51.454;7.266;2023-05-10T05:26:55;99459.31;;;12.23;99.41
77360;BME280;66426;51.454;7.266;2023-05-10T05:27:55;99456.13;;;12.30;99.12
77360;BME280;66426;51.454;7.266;2023-05-10T05:28:56;99454.84;;;12.36;98.81
77360;BME280;66426;51.454;7.266;2023-05-10T05:29:58;99453.53;;;12.29;98.81
77360;BME280;66426;51.454;7.266;2023-05-10T05:30:58;99457.00;;;12.31;98.53
77360;BME280;66426;51.454;7.266;2023-05-10T05:31:59;99461.53;;;12.30;98.96
77360;BME280;66426;51.454;7.266;2023-05-10T05:33:00;99461.31;;;12.34;98.40
77360;BME280;66426;51.454;7.266;2023-05-10T05:34:01;99463.16;;;12.33;98.96
77360;BME280;66426;51.454;7.266;2023-05-10T05:35:02;99461.94;;;12.37;98.56